sensor_id;sensor_type;location;lat;lon;timestamp;temperature;humidity
45323;DHT22;31382;50.200;8.674;2022-07-23T00:03:48;21.30;99.90
45323;DHT22;31382;50.200;8.674;2022-07-23T00:08:51;21.30;99.90
45323;DHT22;31382;50.200;8.674;2022-07-23T00:13:53;21.20;99.90
45323;DHT22;31382;50.200;8.674;2022-07-23T00:18:56;21.10;99.90
45323;DHT22;31382;50.200;8.674;2022-07-23T00:23:58;21.10;99.90
45323;DHT22;31382;50.200;8.674;2022-07-23T00:29:00;21.00;99.90
45323;DHT22;31382;50.200;8.674;2022-07-23T00:34:02;20.90;99.90
45323;DHT22;31382;50.200;8.674;2022-07-23T00:39:04;20.80;99.90
45323;DHT22;31382;50.200;8.674;2022-07-23T00:44:20;20.80;99.90
45323;DHT22;31382;50.200;8.674;2022-07-23T00:49:24;20.80;99.90
45323;DHT22;31382;50.200;8.674;2022-07-23T00:54:27;20.70;99.90
45323;DHT22;31382;50.200;8.674;2022-07-23T00:59:29;20.70;99.90
45323;DHT22;31382;50.200;8.674;2022-07-23T01:04:30;20.60;99.90
45323;DHT22;31382;50.200;8.674;2022-07-23T01:09:32;20.60;99.90
45323;DHT22;31382;50.200;8.674;2022-07-23T01:14:34;20.50;99.90
45323;DHT22;31382;50.200;8.674;2022-07-23T01:19:36;20.40;99.90
45323;DHT22;31382;50.200;8.674;2022-07-23T01:24:37;20.30;99.90
45323;DHT22;31382;50.200;8.674;2022-07-23T01:29:39;20.30;99.90
45323;DHT22;31382;50.200;8.674;2022-07-23T01:34:41;20.20;99.90
45323;DHT22;31382;50.200;8.674;2022-07-23T01:39:43;20.10;99.90
45323;DHT22;31382;50.200;8.674;2022-07-23T01:44:44;20.20;99.90
45323;DHT22;31382;50.200;8.674;2022-07-23T01:49:46;20.20;99.90
45323;DHT22;31382;50.200;8.674;2022-07-23T01:54:48;20.20;99.90
45323;DHT22;31382;50.200;8.674;2022-07-23T01:59:49;20.20;99.90
45323;DHT22;31382;50.200;8.674;2022-07-23T02:04:51;20.20;99.90
45323;DHT22;31382;50.200;8.674;2022-07-23T02:09:53;20.20;99.90
45323;DHT22;31382;50.200;8.674;2022-07-23T02:14:54;20.10;99.90
45323;DHT22;31382;50.200;8.674;2022-07-23T02:19:56;20.10;99.90
45323;DHT22;31382;50.200;8.674;2022-07-23T02:24:58;20.00;99.90
45323;DHT22;31382;50.200;8.674;2022-07-23T02:30:01;19.90;99.90
45323;DHT22;31382;50.200;8.674;2022-07-23T02:35:04;19.90;99.90
45323;DHT22;31382;50.200;8.674;2022-07-23T02:40:06;19.90;99.90
45323;DHT22;31382;50.200;8.674;2022-07-23T02:45:08;19.90;99.90
45323;DHT22;31382;50.200;8.674;2022-07-23T02:50:10;19.80;99.90
45323;DHT22;31382;50.200;8.674;2022-07-23T02:55:13;19.80;99.90
45323;DHT22;31382;50.200;8.674;2022-07-23T03:00:15;19.80;99.90
45323;DHT22;31382;50.200;8.674;2022-07-23T03:05:17;19.70;99.90
45323;DHT22;31382;50.200;8.674;2022-07-23T03:10:19;19.70;99.90
45323;DHT22;31382;50.200;8.674;2022-07-23T03:15:20;19.70;99.90
45323;DHT22;31382;50.200;8.674;2022-07-23T03:20:22;19.60;99.90
45323;DHT22;31382;50.200;8.674;2022-07-23T03:25:24;19.60;99.90
45323;DHT22;31382;50.200;8.674;2022-07-23T03:30:25;19.50;99.90
45323;DHT22;31382;50.200;8.674;2022-07-23T03:35:27;19.30;99.90
45323;DHT22;31382;50.200;8.674;2022-07-23T03:40:29;19.30;99.90
45323;DHT22;31382;50.200;8.674;2022-07-23T03:45:31;19.20;99.90
45323;DHT22;31382;50.200;8.674;2022-07-23T03:50:33;19.10;99.90
45323;DHT22;31382;50.200;8.674;2022-07-23T03:55:36;19.10;99.90
45323;DHT22;31382;50.200;8.674;2022-07-23T04:00:37;19.00;99.90
45323;DHT22;31382;50.200;8.674;2022-07-23T04:05:39;19.00;99.90
45323;DHT22;31382;50.200;8.674;2022-07-23T04:10:41;19.00;99.90
45323;DHT22;31382;50.200;8.674;2022-07-23T04:15:42;19.00;99.90
45323;DHT22;31382;50.200;8.674;2022-07-23T04:20:45;18.90;99.90
45323;DHT22;31382;50.200;8.674;2022-07-23T04:25:46;18.90;99.90
45323;DHT22;31382;50.200;8.674;2022-07-23T04:30:49;18.90;99.90
45323;DHT22;31382;50.200;8.674;2022-07-23T04:35:51;18.80;99.90
45323;DHT22;31382;50.200;8.674;2022-07-23T04:40:53;18.90;99.90
45323;DHT22;31382;50.200;8.674;2022-07-23T04:45:55;18.80;99.90
45323;DHT22;31382;50.200;8.674;2022-07-23T04:50:57;18.80;99.90
45323;DHT22;31382;50.200;8.674;2022-07-23T04:55:59;18.80;99.90
45323;DHT22;31382;50.200;8.674;2022-07-23T05:01:01;18.90;99.90
45323;DHT22;31382;50.200;8.674;2022-07-23T05:06:02;19.00;99.90
45323;DHT22;31382;50.200;8.674;2022-07-23T05:11:05;19.10;99.90
45323;DHT22;31382;50.200;8.674;2022-07-23T05:16:07;19.30;99.90
45323;DHT22;31382;50.200;8.674;2022-07-23T05:21:08;19.40;99.90
45323;DHT22;31382;50.200;8.674;2022-07-23T05:26:10;19.50;99.90
45323;DHT22;31382;50.200;8.674;2022-07-23T05:31:12;19.50;99.90
45323;DHT22;31382;50.200;8.674;2022-07-23T05:36:14;19.50;99.90
45323;DHT22;31382;50.200;8.674;2022-07-23T05:41:15;19.50;99.90
45323;DHT22;31382;50.200;8.674;2022-07-23T05:46:17;19.60;99.90
45323;DHT22;31382;50.200;8.674;2022-07-23T05:51:23;19.50;99.90
45323;DHT22;31382;50.200;8.674;2022-07-23T05:56:25;19.50;99.90
45323;DHT22;31382;50.200;8.674;2022-07-23T06:01:26;19.70;99.90
45323;DHT22;31382;50.200;8.674;2022-07-23T06:06:28;19.70;99.90
45323;DHT22;31382;50.200;8.674;2022-07-23T06:11:30;19.60;99.90
45323;DHT22;31382;50.200;8.674;2022-07-23T06:16:32;19.70;99.90
45323;DHT22;31382;50.200;8.674;2022-07-23T06:21:34;19.80;99.90
45323;DHT22;31382;50.200;8.674;2022-07-23T06:26:48;19.90;99.90
45323;DHT22;31382;50.200;8.674;2022-07-23T06:31:49;20.10;99.90
45323;DHT22;31382;50.200;8.674;2022-07-23T06:36:51;20.20;99.90
45323;DHT22;31382;50.200;8.674;2022-07-23T06:41:53;20.40;99.90
45323;DHT22;31382;50.200;8.674;2022-07-23T06:47:01;20.50;99.90
45323;DHT22;31382;50.200;8.674;2022-07-23T06:52:03;20.50;99.90
45323;DHT22;31382;50.200;8.674;2022-07-23T06:57:05;20.80;99.90
45323;DHT22;31382;50.200;8.674;2022-07-23T07:02:07;20.90;99.90
45323;DHT22;31382;50.200;8.674;2022-07-23T07:07:09;20.90;99.90
45323;DHT22;31382;50.200;8.674;2022-07-23T07:12:11;21.20;99.90
45323;DHT22;31382;50.200;8.674;2022-07-23T07:17:13;21.40;99.90
45323;DHT22;31382;50.200;8.674;2022-07-23T07:22:15;21.50;99.90
45323;DHT22;31382;50.200;8.674;2022-07-23T07:27:16;21.70;99.90
45323;DHT22;31382;50.200;8.674;2022-07-23T07:32:18;21.80;99.90
45323;DHT22;31382;50.200;8.674;2022-07-23T07:37:40;21.80;99.90
45323;DHT22;31382;50.200;8.674;2022-07-23T07:42:50;22.00;99.90
45323;DHT22;31382;50.200;8.674;2022-07-23T07:47:52;22.10;99.90
45323;DHT22;31382;50.200;8.674;2022-07-23T07:52:54;22.20;99.90
45323;DHT22;31382;50.200;8.674;2022-07-23T07:57:56;22.20;99.90
45323;DHT22;31382;50.200;8.674;2022-07-23T08:02:58;22.20;99.90
45323;DHT22;31382;50.200;8.674;2022-07-23T08:08:00;22.30;99.90
45323;DHT22;31382;50.200;8.674;2022-07-23T08:13:02;22.50;99.90
45323;DHT22;31382;50.200;8.674;2022-07-23T08:18:04;22.60;99.90
45323;DHT22;31382;50.200;8.674;2022-07-23T08:23:07;22.70;99.90
45323;DHT22;31382;50.200;8.674;2022-07-23T08:28:10;23.00;99.90
45323;DHT22;31382;50.200;8.674;2022-07-23T08:33:17;23.20;99.90
45323;DHT22;31382;50.200;8.674;2022-07-23T08:38:32;23.50;99.90
45323;DHT22;31382;50.200;8.674;2022-07-23T08:43:34;23.40;99.90
45323;DHT22;31382;50.200;8.674;2022-07-23T08:48:37;23.50;99.90
45323;DHT22;31382;50.200;8.674;2022-07-23T08:53:41;23.60;99.90
45323;DHT22;31382;50.200;8.674;2022-07-23T08:58:43;23.80;99.90
45323;DHT22;31382;50.200;8.674;2022-07-23T09:03:44;24.00;99.90
45323;DHT22;31382;50.200;8.674;2022-07-23T09:08:46;24.20;99.90
45323;DHT22;31382;50.200;8.674;2022-07-23T09:13:50;24.30;99.90
45323;DHT22;31382;50.200;8.674;2022-07-23T09:18:59;24.50;99.90
45323;DHT22;31382;50.200;8.674;2022-07-23T09:24:11;24.50;99.90
45323;DHT22;31382;50.200;8.674;2022-07-23T09:29:18;24.60;99.90
45323;DHT22;31382;50.200;8.674;2022-07-23T09:39:30;25.10;99.90
45323;DHT22;31382;50.200;8.674;2022-07-23T09:44:41;25.20;99.90
45323;DHT22;31382;50.200;8.674;2022-07-23T09:50:12;25.40;99.90
45323;DHT22;31382;50.200;8.674;2022-07-23T09:55:18;25.30;99.90
45323;DHT22;31382;50.200;8.674;2022-07-23T10:00:20;25.50;99.90
45323;DHT22;31382;50.200;8.674;2022-07-23T10:05:23;25.50;99.90
45323;DHT22;31382;50.200;8.674;2022-07-23T10:10:26;25.40;99.70
45323;DHT22;31382;50.200;8.674;2022-07-23T10:15:29;25.30;98.30
45323;DHT22;31382;50.200;8.674;2022-07-23T10:20:31;25.30;98.70
45323;DHT22;31382;50.200;8.674;2022-07-23T10:31:02;25.40;98.30
45323;DHT22;31382;50.200;8.674;2022-07-23T10:36:23;25.70;95.70
45323;DHT22;31382;50.200;8.674;2022-07-23T10:41:36;25.90;96.40
45323;DHT22;31382;50.200;8.674;2022-07-23T10:47:03;26.00;96.10
45323;DHT22;31382;50.200;8.674;2022-07-23T10:57:18;27.00;94.70
45323;DHT22;31382;50.200;8.674;2022-07-23T11:02:21;27.40;94.20
45323;DHT22;31382;50.200;8.674;2022-07-23T11:07:24;27.70;93.90
45323;DHT22;31382;50.200;8.674;2022-07-23T11:18:17;28.40;92.80
45323;DHT22;31382;50.200;8.674;2022-07-23T11:22:58;28.50;91.50
45323;DHT22;31382;50.200;8.674;2022-07-23T11:28:18;28.70;91.00
45323;DHT22;31382;50.200;8.674;2022-07-23T11:33:22;28.70;91.30
45323;DHT22;31382;50.200;8.674;2022-07-23T11:38:24;28.10;85.20
45323;DHT22;31382;50.200;8.674;2022-07-23T11:43:26;28.30;83.80
45323;DHT22;31382;50.200;8.674;2022-07-23T11:48:29;28.30;83.30
45323;DHT22;31382;50.200;8.674;2022-07-23T11:53:33;28.10;84.30
45323;DHT22;31382;50.200;8.674;2022-07-23T11:58:36;28.90;87.80
45323;DHT22;31382;50.200;8.674;2022-07-23T12:03:51;29.10;84.20
45323;DHT22;31382;50.200;8.674;2022-07-23T12:08:53;29.20;82.50
45323;DHT22;31382;50.200;8.674;2022-07-23T12:13:57;29.30;81.10
45323;DHT22;31382;50.200;8.674;2022-07-23T12:19:00;29.70;84.50
45323;DHT22;31382;50.200;8.674;2022-07-23T12:24:08;30.10;80.60
45323;DHT22;31382;50.200;8.674;2022-07-23T12:29:10;30.40;82.70
45323;DHT22;31382;50.200;8.674;2022-07-23T12:34:15;30.50;80.00
45323;DHT22;31382;50.200;8.674;2022-07-23T12:39:29;30.60;77.20
45323;DHT22;31382;50.200;8.674;2022-07-23T12:44:32;30.30;78.70
45323;DHT22;31382;50.200;8.674;2022-07-23T12:49:39;30.30;79.80
45323;DHT22;31382;50.200;8.674;2022-07-23T12:54:41;30.40;78.70
45323;DHT22;31382;50.200;8.674;2022-07-23T12:59:43;30.40;77.70
45323;DHT22;31382;50.200;8.674;2022-07-23T13:04:45;30.10;78.30
45323;DHT22;31382;50.200;8.674;2022-07-23T13:09:46;29.80;76.40
45323;DHT22;31382;50.200;8.674;2022-07-23T13:14:48;29.70;76.30
45323;DHT22;31382;50.200;8.674;2022-07-23T13:19:50;29.50;77.40
45323;DHT22;31382;50.200;8.674;2022-07-23T13:24:52;29.80;79.90
45323;DHT22;31382;50.200;8.674;2022-07-23T13:29:53;30.10;76.50
45323;DHT22;31382;50.200;8.674;2022-07-23T13:34:55;30.10;75.50
45323;DHT22;31382;50.200;8.674;2022-07-23T13:39:57;29.80;75.80
45323;DHT22;31382;50.200;8.674;2022-07-23T13:44:59;29.70;75.50
45323;DHT22;31382;50.200;8.674;2022-07-23T13:50:01;29.60;76.50
45323;DHT22;31382;50.200;8.674;2022-07-23T13:55:04;29.40;75.80
45323;DHT22;31382;50.200;8.674;2022-07-23T14:00:07;29.30;73.20
45323;DHT22;31382;50.200;8.674;2022-07-23T14:05:31;29.90;72.60
45323;DHT22;31382;50.200;8.674;2022-07-23T14:10:34;29.60;72.20
45323;DHT22;31382;50.200;8.674;2022-07-23T14:15:39;30.00;72.60
45323;DHT22;31382;50.200;8.674;2022-07-23T14:20:41;30.30;71.80
45323;DHT22;31382;50.200;8.674;2022-07-23T14:25:43;30.40;71.90
45323;DHT22;31382;50.200;8.674;2022-07-23T14:30:47;30.20;70.10
45323;DHT22;31382;50.200;8.674;2022-07-23T14:35:50;30.00;71.80
45323;DHT22;31382;50.200;8.674;2022-07-23T14:40:51;29.40;70.50
45323;DHT22;31382;50.200;8.674;2022-07-23T14:45:53;29.50;71.20
45323;DHT22;31382;50.200;8.674;2022-07-23T14:50:55;29.20;72.40
45323;DHT22;31382;50.200;8.674;2022-07-23T14:55:56;29.10;72.30
45323;DHT22;31382;50.200;8.674;2022-07-23T15:00:58;28.90;71.50
45323;DHT22;31382;50.200;8.674;2022-07-23T15:06:01;29.10;70.90
45323;DHT22;31382;50.200;8.674;2022-07-23T15:11:02;29.30;71.20
45323;DHT22;31382;50.200;8.674;2022-07-23T15:16:04;29.60;71.60
45323;DHT22;31382;50.200;8.674;2022-07-23T15:21:07;29.50;68.50
45323;DHT22;31382;50.200;8.674;2022-07-23T15:26:10;29.60;69.00
45323;DHT22;31382;50.200;8.674;2022-07-23T15:31:12;30.10;67.90
45323;DHT22;31382;50.200;8.674;2022-07-23T15:36:17;30.30;68.00
45323;DHT22;31382;50.200;8.674;2022-07-23T15:41:20;30.90;66.30
45323;DHT22;31382;50.200;8.674;2022-07-23T15:46:24;31.00;64.20
45323;DHT22;31382;50.200;8.674;2022-07-23T15:51:28;31.10;63.40
45323;DHT22;31382;50.200;8.674;2022-07-23T15:56:31;31.40;63.80
45323;DHT22;31382;50.200;8.674;2022-07-23T16:01:33;31.00;64.40
45323;DHT22;31382;50.200;8.674;2022-07-23T16:06:35;30.30;64.50
45323;DHT22;31382;50.200;8.674;2022-07-23T16:11:37;30.60;63.90
45323;DHT22;31382;50.200;8.674;2022-07-23T16:16:40;30.90;67.60
45323;DHT22;31382;50.200;8.674;2022-07-23T16:21:42;31.20;63.50
45323;DHT22;31382;50.200;8.674;2022-07-23T16:26:43;31.00;63.30
45323;DHT22;31382;50.200;8.674;2022-07-23T16:31:46;30.60;63.70
45323;DHT22;31382;50.200;8.674;2022-07-23T16:36:47;31.00;63.50
45323;DHT22;31382;50.200;8.674;2022-07-23T16:41:49;30.80;62.10
45323;DHT22;31382;50.200;8.674;2022-07-23T16:46:51;30.80;63.30
45323;DHT22;31382;50.200;8.674;2022-07-23T16:51:53;30.50;64.00
45323;DHT22;31382;50.200;8.674;2022-07-23T16:56:54;30.70;63.20
45323;DHT22;31382;50.200;8.674;2022-07-23T17:01:56;30.60;63.40
45323;DHT22;31382;50.200;8.674;2022-07-23T17:06:58;30.50;63.70
45323;DHT22;31382;50.200;8.674;2022-07-23T17:12:04;30.00;64.40
45323;DHT22;31382;50.200;8.674;2022-07-23T17:17:06;29.80;64.10
45323;DHT22;31382;50.200;8.674;2022-07-23T17:22:08;29.70;63.90
45323;DHT22;31382;50.200;8.674;2022-07-23T17:27:10;29.80;64.00
45323;DHT22;31382;50.200;8.674;2022-07-23T17:32:12;29.60;64.00
45323;DHT22;31382;50.200;8.674;2022-07-23T17:37:14;29.50;64.00
45323;DHT22;31382;50.200;8.674;2022-07-23T17:42:15;29.30;64.70
45323;DHT22;31382;50.200;8.674;2022-07-23T17:47:17;29.20;64.90
45323;DHT22;31382;50.200;8.674;2022-07-23T17:52:19;29.00;63.70
45323;DHT22;31382;50.200;8.674;2022-07-23T17:57:20;28.80;63.80
45323;DHT22;31382;50.200;8.674;2022-07-23T18:02:22;28.60;64.20
45323;DHT22;31382;50.200;8.674;2022-07-23T18:07:24;28.50;64.50
45323;DHT22;31382;50.200;8.674;2022-07-23T18:12:26;28.30;65.40
45323;DHT22;31382;50.200;8.674;2022-07-23T18:17:28;28.00;65.60
45323;DHT22;31382;50.200;8.674;2022-07-23T18:22:29;27.70;66.70
45323;DHT22;31382;50.200;8.674;2022-07-23T18:27:32;27.60;67.50
45323;DHT22;31382;50.200;8.674;2022-07-23T18:32:35;27.50;68.30
45323;DHT22;31382;50.200;8.674;2022-07-23T18:37:37;27.20;68.30
45323;DHT22;31382;50.200;8.674;2022-07-23T18:42:39;27.10;69.30
45323;DHT22;31382;50.200;8.674;2022-07-23T18:47:41;27.00;69.90
45323;DHT22;31382;50.200;8.674;2022-07-23T18:52:43;26.80;70.40
45323;DHT22;31382;50.200;8.674;2022-07-23T18:57:44;26.60;71.00
45323;DHT22;31382;50.200;8.674;2022-07-23T19:02:46;26.60;71.70
45323;DHT22;31382;50.200;8.674;2022-07-23T19:07:48;26.40;72.40
45323;DHT22;31382;50.200;8.674;2022-07-23T19:12:50;26.40;73.10
45323;DHT22;31382;50.200;8.674;2022-07-23T19:17:51;26.20;74.10
45323;DHT22;31382;50.200;8.674;2022-07-23T19:22:53;26.00;74.00
45323;DHT22;31382;50.200;8.674;2022-07-23T19:27:55;25.80;74.80
45323;DHT22;31382;50.200;8.674;2022-07-23T19:32:56;25.60;75.20
45323;DHT22;31382;50.200;8.674;2022-07-23T19:37:58;25.40;75.50
45323;DHT22;31382;50.200;8.674;2022-07-23T19:43:00;25.30;76.20
45323;DHT22;31382;50.200;8.674;2022-07-23T19:48:02;25.10;76.80
45323;DHT22;31382;50.200;8.674;2022-07-23T19:53:04;25.00;77.40
45323;DHT22;31382;50.200;8.674;2022-07-23T19:58:06;25.00;78.50
45323;DHT22;31382;50.200;8.674;2022-07-23T20:03:08;24.90;78.70
45323;DHT22;31382;50.200;8.674;2022-07-23T20:08:10;24.90;79.50
45323;DHT22;31382;50.200;8.674;2022-07-23T20:13:19;24.80;79.70
45323;DHT22;31382;50.200;8.674;2022-07-23T20:18:21;24.70;79.60
45323;DHT22;31382;50.200;8.674;2022-07-23T20:23:23;24.60;80.40
45323;DHT22;31382;50.200;8.674;2022-07-23T20:28:26;24.50;80.90
45323;DHT22;31382;50.200;8.674;2022-07-23T20:33:28;24.50;81.60
45323;DHT22;31382;50.200;8.674;2022-07-23T20:38:35;24.40;82.60
45323;DHT22;31382;50.200;8.674;2022-07-23T20:43:37;24.30;83.10
45323;DHT22;31382;50.200;8.674;2022-07-23T20:48:39;24.20;84.30
45323;DHT22;31382;50.200;8.674;2022-07-23T20:53:40;24.10;84.10
45323;DHT22;31382;50.200;8.674;2022-07-23T20:58:42;24.10;84.60
45323;DHT22;31382;50.200;8.674;2022-07-23T21:03:44;24.00;84.90
45323;DHT22;31382;50.200;8.674;2022-07-23T21:08:46;24.00;85.30
45323;DHT22;31382;50.200;8.674;2022-07-23T21:13:48;23.90;85.60
45323;DHT22;31382;50.200;8.674;2022-07-23T21:18:49;23.80;86.00
45323;DHT22;31382;50.200;8.674;2022-07-23T21:23:51;23.70;86.70
45323;DHT22;31382;50.200;8.674;2022-07-23T21:28:53;23.70;87.70
45323;DHT22;31382;50.200;8.674;2022-07-23T21:33:55;23.60;88.20
45323;DHT22;31382;50.200;8.674;2022-07-23T21:38:57;23.50;89.00
45323;DHT22;31382;50.200;8.674;2022-07-23T21:43:59;23.40;89.60
45323;DHT22;31382;50.200;8.674;2022-07-23T21:49:01;23.30;90.10
45323;DHT22;31382;50.200;8.674;2022-07-23T21:54:04;23.20;90.40
45323;DHT22;31382;50.200;8.674;2022-07-23T21:59:07;23.10;90.80
45323;DHT22;31382;50.200;8.674;2022-07-23T22:04:09;23.00;91.20
45323;DHT22;31382;50.200;8.674;2022-07-23T22:09:11;22.90;91.60
45323;DHT22;31382;50.200;8.674;2022-07-23T22:14:13;22.80;92.00
45323;DHT22;31382;50.200;8.674;2022-07-23T22:19:14;22.80;92.20
45323;DHT22;31382;50.200;8.674;2022-07-23T22:24:17;22.70;92.50
45323;DHT22;31382;50.200;8.674;2022-07-23T22:29:19;22.60;92.80
45323;DHT22;31382;50.200;8.674;2022-07-23T22:34:23;22.50;93.20
45323;DHT22;31382;50.200;8.674;2022-07-23T22:39:25;22.40;93.40
45323;DHT22;31382;50.200;8.674;2022-07-23T22:44:27;22.40;93.70
45323;DHT22;31382;50.200;8.674;2022-07-23T22:49:28;22.30;94.00
45323;DHT22;31382;50.200;8.674;2022-07-23T22:54:31;22.20;94.20
45323;DHT22;31382;50.200;8.674;2022-07-23T22:59:33;22.20;94.60
45323;DHT22;31382;50.200;8.674;2022-07-23T23:04:35;22.10;94.70
45323;DHT22;31382;50.200;8.674;2022-07-23T23:09:37;22.10;94.90
45323;DHT22;31382;50.200;8.674;2022-07-23T23:14:39;22.10;95.20
45323;DHT22;31382;50.200;8.674;2022-07-23T23:19:41;22.00;95.40
45323;DHT22;31382;50.200;8.674;2022-07-23T23:24:42;21.90;95.50
45323;DHT22;31382;50.200;8.674;2022-07-23T23:29:44;21.90;95.70
45323;DHT22;31382;50.200;8.674;2022-07-23T23:34:50;21.90;95.80
45323;DHT22;31382;50.200;8.674;2022-07-23T23:39:52;21.80;96.00
45323;DHT22;31382;50.200;8.674;2022-07-23T23:44:53;21.70;96.30
45323;DHT22;31382;50.200;8.674;2022-07-23T23:49:55;21.60;96.70
45323;DHT22;31382;50.200;8.674;2022-07-23T23:54:57;21.60;96.80
45323;DHT22;31382;50.200;8.674;2022-07-23T23:59:59;21.50;97.10
